Time;durP1;ratioP1;P1;durP2;ratioP2;P2;SDS_P1;SDS_P2;PMS_P1;PMS_P2;Temp;Humidity;BMP_temperature;BMP_pressure;BME280_temperature;BME280_humidity;BME280_pressure;Samples;Min_cycle;Max_cycle;Signal;HPM_P1;HPM_P2
2022/02/12 00:00:17;;;;;;;16.15;4.00;;;;;;;4.05;100.00;99332.13;4982017;28;20077;-79
2022/02/12 00:02:43;;;;;;;15.23;3.75;;;;;;;3.93;100.00;99333.97;4978433;28;20055;-80
2022/02/12 00:05:10;;;;;;;16.02;3.60;;;;;;;3.99;100.00;99342.97;4976949;28;20050;-80
2022/02/12 00:07:37;;;;;;;13.38;3.28;;;;;;;3.84;100.00;99338.03;4980538;28;20093;-80
2022/02/12 00:10:06;;;;;;;18.02;3.60;;;;;;;3.90;100.00;99339.00;4975917;28;20051;-80
2022/02/12 00:12:33;;;;;;;19.58;3.80;;;;;;;3.70;100.00;99339.28;4976318;28;20055;-78
2022/02/12 00:14:59;;;;;;;13.32;3.30;;;;;;;3.66;100.00;99322.88;4976634;28;20102;-80
2022/02/12 00:17:26;;;;;;;20.15;3.58;;;;;;;3.78;100.00;99342.44;4976071;28;20046;-81
2022/02/12 00:19:53;;;;;;;20.17;4.20;;;;;;;3.84;100.00;99340.72;4977748;28;20057;-80
2022/02/12 00:22:20;;;;;;;19.05;3.63;;;;;;;3.60;100.00;99347.06;4975484;28;20050;-80
2022/02/12 00:24:46;;;;;;;11.55;3.78;;;;;;;3.47;100.00;99337.34;4977969;28;20405;-80
2022/02/12 00:27:13;;;;;;;29.80;3.97;;;;;;;3.48;100.00;99351.56;4976686;28;20054;-80
2022/02/12 00:29:40;;;;;;;14.93;3.97;;;;;;;3.43;100.00;99340.72;4974775;28;20121;-80
2022/02/12 00:32:09;;;;;;;16.88;3.78;;;;;;;3.31;100.00;99355.88;4975336;28;20055;-81
2022/02/12 00:34:36;;;;;;;16.63;3.85;;;;;;;3.34;100.00;99350.91;4976466;28;20066;-80
2022/02/12 00:37:03;;;;;;;12.30;3.45;;;;;;;3.29;100.00;99342.75;4977727;28;20055;-82
2022/02/12 00:39:29;;;;;;;22.08;4.13;;;;;;;3.35;100.00;99343.69;4976108;28;20102;-79
2022/02/12 00:41:56;;;;;;;17.58;4.00;;;;;;;3.37;100.00;99344.28;4975084;28;20318;-80
2022/02/12 00:44:25;;;;;;;21.75;3.88;;;;;;;3.24;100.00;99355.16;4972879;28;20057;-80
2022/02/12 00:46:53;;;;;;;18.17;4.28;;;;;;;3.30;100.00;99356.94;4963934;28;20059;-78
2022/02/12 00:49:20;;;;;;;17.67;4.18;;;;;;;3.37;100.00;99347.78;4955931;28;20050;-78
2022/02/12 00:51:46;;;;;;;16.88;4.15;;;;;;;3.32;100.00;99357.53;4954559;28;20113;-77
2022/02/12 00:54:17;;;;;;;18.15;4.20;;;;;;;3.36;100.00;99359.53;4955061;28;20059;-79
2022/02/12 00:56:44;;;;;;;20.08;4.03;;;;;;;3.12;100.00;99350.56;4955517;28;20055;-79
2022/02/12 00:59:10;;;;;;;18.30;4.10;;;;;;;3.21;100.00;99361.78;4954636;28;20067;-80
2022/02/12 01:01:37;;;;;;;12.48;3.70;;;;;;;3.12;100.00;99347.88;4968716;28;20420;-80
2022/02/12 01:04:04;;;;;;;12.27;3.30;;;;;;;3.25;100.00;99368.34;4975081;28;20055;-78
2022/02/12 01:06:32;;;;;;;17.13;3.97;;;;;;;3.20;100.00;99354.78;4973137;28;20050;-79
2022/02/12 01:08:59;;;;;;;22.80;4.03;;;;;;;3.10;100.00;99365.19;4975348;28;20317;-81
2022/02/12 01:11:26;;;;;;;20.13;3.15;;;;;;;2.97;100.00;99370.69;4975596;28;20062;-80
2022/02/12 01:13:53;;;;;;;18.13;3.83;;;;;;;3.06;100.00;99380.09;4973709;28;20388;-78
2022/02/12 01:16:19;;;;;;;16.90;4.00;;;;;;;3.15;100.00;99379.53;4972690;28;20047;-81
2022/02/12 01:18:46;;;;;;;22.10;3.90;;;;;;;3.29;100.00;99385.56;4975372;28;20059;-81
2022/02/12 01:21:15;;;;;;;17.65;3.20;;;;;;;3.38;100.00;99386.88;4974456;28;20047;-79
2022/02/12 01:23:41;;;;;;;25.27;4.65;;;;;;;3.33;100.00;99377.91;4975534;28;20062;-81
2022/02/12 01:26:08;;;;;;;16.42;3.40;;;;;;;3.40;100.00;99397.38;4975145;28;20113;-81
2022/02/12 01:28:34;;;;;;;21.33;3.90;;;;;;;3.38;100.00;99394.13;4976081;28;20051;-81
2022/02/12 01:31:01;;;;;;;16.88;3.38;;;;;;;3.32;100.00;99387.78;4975518;28;20078;-82
2022/02/12 01:33:27;;;;;;;14.07;3.25;;;;;;;3.36;100.00;99393.50;4976765;28;20113;-79
2022/02/12 01:35:54;;;;;;;15.85;3.28;;;;;;;3.29;100.00;99379.38;4979237;28;20122;-78
2022/02/12 01:38:21;;;;;;;15.60;3.83;;;;;;;3.17;100.00;99384.69;4984376;28;20054;-78
2022/02/12 01:40:48;;;;;;;14.68;3.35;;;;;;;3.12;100.00;99389.91;4982590;28;20058;-80
2022/02/12 01:43:15;;;;;;;21.35;4.10;;;;;;;3.30;100.00;99397.91;4975991;28;20051;-80
2022/02/12 01:45:41;;;;;;;17.33;3.40;;;;;;;3.29;100.00;99388.25;4975776;28;20082;-81
2022/02/12 01:48:08;;;;;;;19.85;4.10;;;;;;;3.29;100.00;99395.44;4976858;28;20082;-81
2022/02/12 01:50:35;;;;;;;18.73;3.75;;;;;;;3.28;100.00;99396.50;4960842;28;20058;-77
2022/02/12 01:53:01;;;;;;;26.42;4.22;;;;;;;3.38;100.00;99388.75;4949097;28;20059;-81
2022/02/12 01:55:28;;;;;;;13.20;3.60;;;;;;;3.15;100.00;99386.75;4953423;28;20058;-78
2022/02/12 01:57:54;;;;;;;14.82;3.38;;;;;;;3.07;100.00;99392.44;4953502;28;20106;-78
2022/02/12 02:00:22;;;;;;;17.58;3.53;;;;;;;3.15;100.00;99392.94;4952820;28;20051;-79
2022/02/12 02:02:49;;;;;;;21.58;3.72;;;;;;;3.01;100.00;99396.00;4955340;28;20511;-79
2022/02/12 02:05:17;;;;;;;22.50;3.90;;;;;;;2.93;100.00;99394.44;4959093;28;20051;-81
2022/02/12 02:07:44;;;;;;;19.20;3.72;;;;;;;2.94;100.00;99398.72;4961645;29;20047;-80
2022/02/12 02:10:12;;;;;;;23.27;3.85;;;;;;;2.86;100.00;99398.22;4965551;28;20043;-79
2022/02/12 02:12:39;;;;;;;28.17;4.28;;;;;;;2.90;100.00;99391.38;4972621;28;20106;-82
2022/02/12 02:15:07;;;;;;;19.15;3.33;;;;;;;2.80;100.00;99394.56;4962492;28;20130;-81
2022/02/12 02:17:34;;;;;;;19.95;4.28;;;;;;;2.78;100.00;99396.66;4959466;28;20102;-79
2022/02/12 02:20:03;;;;;;;17.92;3.45;;;;;;;2.69;100.00;99405.16;4960374;28;20102;-79
2022/02/12 02:22:38;;;;;;;15.88;3.53;;;;;;;2.84;100.00;99401.09;4959682;28;20108;-81
2022/02/12 02:25:05;;;;;;;18.23;4.07;;;;;;;2.76;100.00;99403.25;4961369;29;20047;-80
2022/02/12 02:27:31;;;;;;;19.45;3.53;;;;;;;2.53;100.00;99383.31;4959236;29;20075;-81
2022/02/12 02:29:58;;;;;;;14.82;3.65;;;;;;;2.45;100.00;99398.81;4961679;28;20477;-79
2022/02/12 02:32:24;;;;;;;20.67;3.65;;;;;;;2.27;100.00;99393.44;4960597;29;20055;-80
2022/02/12 02:34:54;;;;;;;14.63;3.67;;;;;;;2.40;100.00;99385.31;4960308;28;20051;-79
2022/02/12 02:37:22;;;;;;;15.30;3.53;;;;;;;2.45;100.00;99385.47;4960419;28;20086;-80
2022/02/12 02:39:49;;;;;;;23.20;4.28;;;;;;;2.31;100.00;99383.94;4956622;29;20114;-80
2022/02/12 02:42:16;;;;;;;22.70;3.90;;;;;;;2.32;100.00;99389.03;4957267;29;20039;-81
2022/02/12 02:44:43;;;;;;;15.50;3.50;;;;;;;2.16;100.00;99386.94;4953051;28;20102;-80
2022/02/12 02:49:54;;;;;;;18.25;3.78;;;;;;;2.34;100.00;99372.81;4954393;29;20079;-80
2022/02/12 02:57:52;;;;;;;22.55;3.35;;;;;;;2.16;100.00;99376.25;4973380;29;20043;-79
2022/02/12 03:00:18;;;;;;;21.77;4.63;;;;;;;2.22;100.00;99369.22;4973913;28;20039;-77
2022/02/12 03:02:46;;;;;;;20.92;4.32;;;;;;;1.81;100.00;99377.72;4970466;28;20047;-80
2022/02/12 03:05:16;;;;;;;28.50;3.50;;;;;;;1.80;100.00;99371.59;4964904;29;20323;-79
2022/02/12 03:07:43;;;;;;;21.25;4.03;;;;;;;1.86;100.00;99367.22;4960724;29;20071;-79
2022/02/12 03:10:10;;;;;;;27.95;4.45;;;;;;;2.01;100.00;99365.06;4960662;28;20054;-80
2022/02/12 03:12:36;;;;;;;24.02;3.42;;;;;;;2.02;100.00;99372.03;4959388;28;20062;-81
2022/02/12 03:15:04;;;;;;;16.65;3.13;;;;;;;1.89;100.00;99377.47;4959430;28;20047;-81
2022/02/12 03:17:31;;;;;;;23.08;3.67;;;;;;;1.59;100.00;99373.78;4959522;28;20051;-80
2022/02/12 03:19:57;;;;;;;24.05;3.78;;;;;;;1.59;100.00;99371.09;4958337;28;20795;-80
2022/02/12 03:22:24;;;;;;;19.08;3.50;;;;;;;1.78;100.00;99373.63;4957707;28;20051;-81
2022/02/12 03:24:50;;;;;;;18.63;4.10;;;;;;;1.75;100.00;99362.59;4958456;28;20055;-81
2022/02/12 03:27:17;;;;;;;30.08;3.83;;;;;;;1.82;100.00;99371.38;4958181;28;20063;-81
2022/02/12 03:29:43;;;;;;;19.17;3.70;;;;;;;1.74;100.00;99372.44;4957994;29;20047;-80
2022/02/12 03:32:10;;;;;;;18.95;3.20;;;;;;;1.68;100.00;99370.63;4958000;28;20500;-80
2022/02/12 03:34:37;;;;;;;21.23;4.30;;;;;;;1.77;100.00;99360.50;4958925;28;20086;-80
2022/02/12 03:37:04;;;;;;;27.25;4.60;;;;;;;1.87;100.00;99368.88;4959992;28;20048;-78
2022/02/12 03:39:30;;;;;;;21.00;3.85;;;;;;;1.74;100.00;99363.59;4958717;29;20102;-81
2022/02/12 03:41:57;;;;;;;34.38;4.63;;;;;;;1.66;100.00;99372.69;4959007;28;20106;-80
2022/02/12 03:44:23;;;;;;;16.35;3.58;;;;;;;1.84;100.00;99375.47;4959840;28;20051;-80
2022/02/12 03:46:50;;;;;;;23.70;3.78;;;;;;;1.81;100.00;99369.72;4958674;29;20113;-79
2022/02/12 03:49:16;;;;;;;18.67;4.22;;;;;;;1.69;100.00;99364.25;4957353;28;20137;-79
2022/02/12 03:51:43;;;;;;;24.15;4.03;;;;;;;1.71;100.00;99367.53;4956930;29;20051;-80
2022/02/12 03:54:09;;;;;;;20.10;3.78;;;;;;;1.75;100.00;99362.59;4958053;28;20106;-80
2022/02/12 03:56:36;;;;;;;15.63;3.47;;;;;;;1.70;100.00;99357.88;4959488;28;20055;-80
2022/02/12 03:59:02;;;;;;;18.52;3.90;;;;;;;1.61;100.00;99361.03;4957453;28;20051;-81
2022/02/12 04:01:29;;;;;;;25.73;4.13;;;;;;;1.62;100.00;99349.31;4958776;28;20074;-80
2022/02/12 04:03:55;;;;;;;15.15;3.35;;;;;;;1.56;100.00;99348.34;4958597;28;20086;-80
2022/02/12 04:06:22;;;;;;;23.67;3.65;;;;;;;1.45;100.00;99358.84;4958498;29;20055;-80
2022/02/12 04:08:49;;;;;;;20.52;4.00;;;;;;;1.55;100.00;99359.25;4958968;28;20082;-78
2022/02/12 04:11:17;;;;;;;25.88;5.22;;;;;;;1.43;100.00;99372.41;4958501;28;20437;-80
2022/02/12 04:13:46;;;;;;;19.98;4.50;;;;;;;1.40;100.00;99362.16;4958057;28;20050;-80
2022/02/12 04:16:13;;;;;;;16.92;3.60;;;;;;;1.45;100.00;99358.84;4956813;29;20468;-82
2022/02/12 04:18:40;;;;;;;23.70;4.57;;;;;;;1.30;100.00;99356.47;4958514;28;20047;-79
2022/02/12 04:21:07;;;;;;;20.88;4.50;;;;;;;1.41;100.00;99344.31;4957760;29;20071;-79
2022/02/12 04:23:33;;;;;;;15.35;4.50;;;;;;;1.38;100.00;99342.06;4956976;29;20055;-79
2022/02/12 04:26:03;;;;;;;27.20;4.70;;;;;;;1.38;100.00;99348.22;4958263;28;20051;-78
2022/02/12 04:28:35;;;;;;;20.25;4.53;;;;;;;1.33;100.00;99342.72;4954806;28;20047;-78
2022/02/12 04:31:04;;;;;;;19.23;4.85;;;;;;;1.40;100.00;99356.84;4955066;28;20047;-80
2022/02/12 04:33:31;;;;;;;26.55;4.97;;;;;;;1.15;100.00;99359.44;4959111;28;20055;-79
2022/02/12 04:35:59;;;;;;;24.92;4.60;;;;;;;1.23;100.00;99364.53;4960360;29;20047;-80
2022/02/12 04:38:27;;;;;;;17.38;4.10;;;;;;;1.31;100.00;99347.47;4965444;28;20059;-80
2022/02/12 04:40:54;;;;;;;23.65;5.18;;;;;;;1.23;100.00;99350.38;4969643;28;20051;-79
2022/02/12 04:43:40;;;;;;;20.25;4.20;;;;;;;1.19;100.00;99352.63;4959277;28;20631;-77
2022/02/12 04:46:07;;;;;;;24.25;4.70;;;;;;;1.17;100.00;99353.88;4957041;28;20062;-80
2022/02/12 04:48:33;;;;;;;19.88;4.32;;;;;;;1.17;100.00;99354.69;4955738;28;20047;-79
2022/02/12 04:51:00;;;;;;;27.08;5.00;;;;;;;1.16;100.00;99355.72;4959056;29;20126;-80
2022/02/12 04:53:26;;;;;;;27.52;5.75;;;;;;;0.63;100.00;99351.59;4959471;28;20063;-79
2022/02/12 04:55:53;;;;;;;27.33;5.75;;;;;;;0.75;100.00;99343.81;4966310;29;20051;-79
2022/02/12 04:58:19;;;;;;;24.60;4.55;;;;;;;0.93;100.00;99354.59;4965995;28;20074;-79
2022/02/12 05:00:46;;;;;;;15.45;3.90;;;;;;;0.83;100.00;99349.69;4960249;28;20436;-80
2022/02/12 05:03:12;;;;;;;14.35;3.90;;;;;;;0.86;100.00;99345.78;4958920;28;20075;-80
2022/02/12 05:05:39;;;;;;;16.00;4.30;;;;;;;0.85;100.00;99333.50;4956344;28;20102;-80
2022/02/12 05:08:08;;;;;;;23.85;4.43;;;;;;;0.80;100.00;99331.47;4955345;28;20051;-79
2022/02/12 05:10:35;;;;;;;18.08;3.92;;;;;;;0.89;100.00;99348.03;4952330;28;20173;-78
2022/02/12 05:13:02;;;;;;;16.38;3.70;;;;;;;0.84;100.00;99353.19;4951438;29;20044;-78
2022/02/12 05:15:28;;;;;;;20.08;3.70;;;;;;;0.85;100.00;99352.16;4953944;29;20055;-80
2022/02/12 05:17:55;;;;;;;22.40;4.43;;;;;;;0.83;100.00;99341.69;4959339;29;20704;-79
2022/02/12 05:20:21;;;;;;;25.55;3.85;;;;;;;0.68;100.00;99330.47;4958780;29;20051;-77
2022/02/12 05:22:48;;;;;;;17.33;3.40;;;;;;;0.61;100.00;99335.84;4955219;28;20043;-79
2022/02/12 05:25:14;;;;;;;14.43;3.70;;;;;;;0.44;100.00;99329.31;4956262;28;20098;-82
2022/02/12 05:27:41;;;;;;;18.95;3.80;;;;;;;0.52;100.00;99345.06;4955209;29;20051;-80
2022/02/12 05:30:08;;;;;;;33.05;4.45;;;;;;;0.37;100.00;99339.16;4952991;29;20512;-78
2022/02/12 05:32:35;;;;;;;22.63;4.60;;;;;;;0.46;100.00;99339.78;4955384;29;20055;-79
2022/02/12 05:35:02;;;;;;;23.45;4.53;;;;;;;0.54;100.00;99329.69;4957637;28;20055;-79
2022/02/12 05:37:28;;;;;;;22.75;4.63;;;;;;;0.51;100.00;99322.13;4954509;28;20444;-80
2022/02/12 05:39:55;;;;;;;21.25;5.10;;;;;;;0.48;100.00;99340.38;4958357;28;20660;-79
2022/02/12 05:42:21;;;;;;;20.17;5.72;;;;;;;0.42;100.00;99325.22;4957714;28;20110;-79
2022/02/12 05:44:49;;;;;;;21.85;5.78;;;;;;;0.23;100.00;99315.44;4959205;28;20059;-80
2022/02/12 05:47:16;;;;;;;20.02;5.15;;;;;;;0.39;100.00;99326.44;4959746;29;20066;-80
2022/02/12 05:49:42;;;;;;;22.50;5.43;;;;;;;0.40;100.00;99340.59;4957857;29;20054;-80
2022/02/12 05:52:09;;;;;;;26.08;5.65;;;;;;;0.49;100.00;99329.50;4962574;28;20047;-79
2022/02/12 05:54:36;;;;;;;24.45;5.80;;;;;;;0.40;100.00;99325.44;4958411;28;20055;-78
2022/02/12 05:57:02;;;;;;;21.23;4.82;;;;;;;-0.07;100.00;99337.16;4956440;28;20055;-79
2022/02/12 05:59:29;;;;;;;27.25;4.65;;;;;;;0.13;100.00;99325.69;4956584;28;20062;-79
2022/02/12 06:01:57;;;;;;;14.98;4.18;;;;;;;-0.08;100.00;99332.03;4965357;28;20051;-79
2022/02/12 06:04:23;;;;;;;23.48;5.05;;;;;;;0.14;100.00;99338.78;4969855;28;20306;-79
2022/02/12 06:06:50;;;;;;;25.85;5.35;;;;;;;0.05;100.00;99341.88;4965657;28;20051;-78
2022/02/12 06:09:16;;;;;;;26.38;5.63;;;;;;;0.16;100.00;99330.56;4965742;28;20051;-78
2022/02/12 06:11:43;;;;;;;25.85;5.90;;;;;;;0.21;100.00;99323.59;4965917;28;20071;-79
2022/02/12 06:14:09;;;;;;;20.45;5.00;;;;;;;0.21;100.00;99338.75;4964144;28;20055;-78
2022/02/12 06:16:37;;;;;;;22.40;4.80;;;;;;;0.19;100.00;99330.16;4956028;28;20051;-77
2022/02/12 06:19:03;;;;;;;27.35;5.43;;;;;;;0.27;100.00;99346.75;4955379;28;20106;-78
2022/02/12 06:21:30;;;;;;;20.30;5.13;;;;;;;0.35;100.00;99341.22;4953346;28;20052;-80
2022/02/12 06:23:56;;;;;;;20.35;4.80;;;;;;;0.25;100.00;99340.00;4951071;29;20050;-78
2022/02/12 06:26:23;;;;;;;25.17;4.90;;;;;;;0.13;100.00;99341.66;4951302;29;20118;-77
2022/02/12 06:28:49;;;;;;;18.65;5.00;;;;;;;0.12;100.00;99362.13;4953648;28;20055;-78
2022/02/12 06:31:16;;;;;;;27.33;5.20;;;;;;;-0.06;100.00;99351.28;4944771;29;20192;-78
2022/02/12 06:33:42;;;;;;;24.63;4.95;;;;;;;0.02;100.00;99345.75;4948486;28;20062;-78
2022/02/12 06:36:09;;;;;;;23.05;5.40;;;;;;;0.02;100.00;99352.91;4954399;28;20047;-79
2022/02/12 06:38:35;;;;;;;17.20;3.05;;;;;;;0.06;100.00;99351.47;4954204;28;20059;-78
2022/02/12 06:41:02;;;;;;;21.05;3.30;;;;;;;0.12;100.00;99348.81;4950077;29;20190;-79
2022/02/12 06:43:29;;;;;;;21.25;3.88;;;;;;;-0.05;100.00;99348.41;4953225;28;20059;-79
2022/02/12 06:45:55;;;;;;;18.67;3.75;;;;;;;-0.11;100.00;99351.09;4951993;28;20084;-78
2022/02/12 06:48:22;;;;;;;24.35;3.50;;;;;;;-0.11;100.00;99356.41;4950827;28;20063;-79
2022/02/12 06:50:49;;;;;;;15.75;4.18;;;;;;;-0.07;100.00;99349.63;4952261;28;20105;-79
2022/02/12 06:53:15;;;;;;;26.35;5.65;;;;;;;-0.72;100.00;99355.66;4957715;28;20043;-79
2022/02/12 06:55:42;;;;;;;23.90;6.00;;;;;;;-0.19;100.00;99351.28;4959571;28;20496;-79
2022/02/12 06:58:08;;;;;;;25.50;5.88;;;;;;;-0.07;100.00;99357.63;4950705;28;20822;-77
2022/02/12 07:00:35;;;;;;;25.55;6.65;;;;;;;0.05;100.00;99363.16;4934184;28;20539;-78
2022/02/12 07:03:02;;;;;;;32.42;6.68;;;;;;;0.00;100.00;99366.44;4932926;29;20102;-78
2022/02/12 07:05:28;;;;;;;23.05;6.53;;;;;;;0.18;100.00;99365.84;4958272;29;20186;-80
2022/02/12 07:07:56;;;;;;;23.13;5.78;;;;;;;0.19;100.00;99354.97;4963009;28;20416;-78
2022/02/12 07:10:23;;;;;;;22.77;5.10;;;;;;;0.27;100.00;99367.25;4952217;28;20054;-78
2022/02/12 07:12:49;;;;;;;20.15;4.90;;;;;;;0.38;100.00;99361.28;4952163;28;20047;-79
2022/02/12 07:15:16;;;;;;;16.17;5.20;;;;;;;0.47;100.00;99362.69;4952466;28;20404;-79
2022/02/12 07:17:43;;;;;;;22.88;7.70;;;;;;;0.59;100.00;99369.06;4954010;29;20063;-79
2022/02/12 07:20:11;;;;;;;19.75;7.18;;;;;;;0.74;100.00;99360.81;4940808;28;20586;-79
2022/02/12 07:22:40;;;;;;;22.73;7.57;;;;;;;0.75;100.00;99349.13;4942847;29;20086;-78
2022/02/12 07:25:11;;;;;;;25.48;7.00;;;;;;;0.75;100.00;99363.25;4952162;28;20691;-79
2022/02/12 07:27:38;;;;;;;25.65;7.47;;;;;;;0.87;100.00;99363.44;4952018;28;20147;-78
2022/02/12 07:30:10;;;;;;;20.23;7.68;;;;;;;1.11;100.00;99368.06;4949263;28;20145;-79
2022/02/12 07:32:39;;;;;;;24.65;6.38;;;;;;;1.22;100.00;99370.88;4950419;29;20102;-80
2022/02/12 07:35:08;;;;;;;23.60;7.15;;;;;;;1.25;100.00;99370.47;4952268;28;20134;-79
2022/02/12 07:37:37;;;;;;;38.25;8.00;;;;;;;1.42;100.00;99370.78;4948351;29;20055;-79
2022/02/12 07:40:05;;;;;;;31.40;9.20;;;;;;;1.42;100.00;99373.44;4951450;28;20058;-78
2022/02/12 07:42:31;;;;;;;33.65;9.35;;;;;;;1.73;100.00;99383.34;4946844;29;20047;-78
2022/02/12 07:44:58;;;;;;;28.55;9.68;;;;;;;1.73;100.00;99380.69;4949893;29;20456;-78
2022/02/12 07:47:25;;;;;;;32.17;10.10;;;;;;;1.78;100.00;99378.19;4948303;28;20055;-79
2022/02/12 07:49:52;;;;;;;34.13;9.63;;;;;;;1.91;100.00;99372.72;4945166;29;20150;-79
2022/02/12 07:52:20;;;;;;;31.25;10.10;;;;;;;1.71;100.00;99374.72;4952175;28;20784;-79
2022/02/12 07:54:47;;;;;;;40.20;13.40;;;;;;;2.02;100.00;99385.38;4956939;29;20047;-79
2022/02/12 07:57:14;;;;;;;52.70;19.17;;;;;;;2.10;100.00;99369.09;4956232;28;20114;-80
2022/02/12 07:59:41;;;;;;;50.30;17.58;;;;;;;2.33;100.00;99384.53;4953332;28;20079;-79
2022/02/12 08:02:08;;;;;;;49.50;15.77;;;;;;;2.55;100.00;99383.09;4952598;28;20051;-79
2022/02/12 08:04:34;;;;;;;47.75;16.65;;;;;;;2.69;100.00;99383.78;4952043;29;20055;-79
2022/02/12 08:09:46;;;;;;;29.75;11.70;;;;;;;2.82;100.00;99383.63;4948554;29;20074;-78
2022/02/12 08:12:13;;;;;;;27.27;11.93;;;;;;;2.82;100.00;99389.81;4951219;28;20040;-79
2022/02/12 08:14:51;;;;;;;27.35;9.05;;;;;;;2.86;100.00;99390.19;4951278;29;20054;-78
2022/02/12 08:17:19;;;;;;;21.90;9.60;;;;;;;3.08;100.00;99391.38;4965607;29;20047;-81
2022/02/12 08:19:47;;;;;;;30.10;9.85;;;;;;;3.04;100.00;99391.03;4964008;28;20102;-78
2022/02/12 08:22:15;;;;;;;29.85;9.10;;;;;;;3.17;100.00;99383.88;4953814;28;20475;-80
2022/02/12 08:24:42;;;;;;;34.60;9.63;;;;;;;3.33;100.00;99377.91;4952610;28;20058;-80
2022/02/12 08:27:11;;;;;;;28.75;9.60;;;;;;;3.42;100.00;99387.25;4950537;28;20059;-78
2022/02/12 08:29:40;;;;;;;33.55;9.45;;;;;;;3.55;100.00;99384.41;4951823;28;20753;-79
2022/02/12 08:32:07;;;;;;;33.05;9.05;;;;;;;3.42;100.00;99384.56;4950288;28;20048;-78
2022/02/12 08:34:35;;;;;;;27.10;9.02;;;;;;;3.56;100.00;99389.50;4953028;28;20484;-77
2022/02/12 08:37:02;;;;;;;27.13;9.38;;;;;;;3.72;100.00;99396.09;4951395;29;20113;-78
2022/02/12 08:39:29;;;;;;;23.92;9.48;;;;;;;3.93;100.00;99395.59;4952048;28;20563;-77
2022/02/12 08:41:56;;;;;;;25.80;9.70;;;;;;;4.27;100.00;99397.53;4951162;29;20043;-79
2022/02/12 08:44:22;;;;;;;29.00;9.90;;;;;;;4.34;100.00;99392.88;4948197;28;20055;-77
2022/02/12 08:46:49;;;;;;;20.05;8.98;;;;;;;4.41;100.00;99388.22;4954154;28;20058;-80
2022/02/12 08:49:16;;;;;;;28.73;9.10;;;;;;;5.42;100.00;99386.97;4954737;28;20051;-78
2022/02/12 08:51:42;;;;;;;23.92;8.30;;;;;;;6.10;100.00;99386.91;4948570;28;20293;-79
2022/02/12 08:54:12;;;;;;;25.33;8.65;;;;;;;7.20;100.00;99382.34;4956738;29;20492;-77
2022/02/12 08:56:40;;;;;;;26.88;8.30;;;;;;;7.69;100.00;99383.22;4947581;28;20082;-79
2022/02/12 08:59:08;;;;;;;19.85;6.30;;;;;;;8.06;100.00;99384.16;4953348;28;20055;-79
2022/02/12 09:01:37;;;;;;;16.13;6.05;;;;;;;8.14;97.78;99380.16;4953195;28;20128;-79
2022/02/12 09:04:08;;;;;;;13.77;4.95;;;;;;;8.95;90.31;99370.00;4955104;29;20118;-80
2022/02/12 09:06:38;;;;;;;19.10;5.55;;;;;;;9.21;77.60;99369.06;4955253;28;20055;-78
2022/02/12 09:09:09;;;;;;;16.05;5.22;;;;;;;9.90;73.15;99366.84;4955958;28;20047;-80
2022/02/12 09:11:38;;;;;;;12.45;5.13;;;;;;;10.64;68.23;99349.00;4964244;28;20086;-80
2022/02/12 09:14:06;;;;;;;14.45;5.03;;;;;;;10.40;63.24;99347.16;4964184;28;20100;-81
2022/02/12 09:16:36;;;;;;;9.75;4.38;;;;;;;10.63;62.13;99369.06;4963948;28;20071;-79
2022/02/12 09:19:04;;;;;;;9.80;4.30;;;;;;;10.82;61.49;99349.50;4957476;29;20121;-80
2022/02/12 09:21:30;;;;;;;12.55;4.68;;;;;;;10.37;59.87;99358.53;4964553;29;20055;-80
2022/02/12 09:23:57;;;;;;;13.85;4.78;;;;;;;11.10;59.74;99336.16;4964340;28;20059;-81
2022/02/12 09:26:30;;;;;;;10.30;3.75;;;;;;;11.50;55.80;99331.66;4943488;29;20055;-78
2022/02/12 09:29:00;;;;;;;9.27;3.80;;;;;;;12.97;53.26;99335.66;4945086;29;20051;-78
2022/02/12 09:31:27;;;;;;;10.07;3.90;;;;;;;12.67;52.96;99357.69;4957184;28;20058;-78
2022/02/12 09:33:53;;;;;;;9.32;3.65;;;;;;;12.59;51.51;99339.31;4957060;28;20047;-78
2022/02/12 09:36:20;;;;;;;6.78;3.03;;;;;;;13.58;50.10;99333.03;4957725;28;20416;-79
2022/02/12 09:38:50;;;;;;;9.82;3.58;;;;;;;12.33;51.01;99314.28;4959672;28;20051;-81
2022/02/12 09:41:23;;;;;;;9.32;3.38;;;;;;;12.62;49.44;99295.25;4956079;28;20051;-80
2022/02/12 09:43:53;;;;;;;10.85;3.03;;;;;;;12.76;50.78;99317.13;4958678;28;20496;-79
2022/02/12 09:46:20;;;;;;;11.38;3.00;;;;;;;13.41;52.34;99334.63;4957651;28;20106;-81
2022/02/12 09:48:47;;;;;;;9.75;3.60;;;;;;;13.72;50.28;99316.78;4957336;28;20420;-79
2022/02/12 09:51:13;;;;;;;8.70;3.05;;;;;;;12.54;50.82;99316.81;4955763;28;20083;-79
2022/02/12 09:53:40;;;;;;;9.35;2.88;;;;;;;11.42;54.28;99322.22;4952545;28;20272;-80
2022/02/12 09:56:06;;;;;;;8.10;2.78;;;;;;;14.60;48.36;99322.22;4954412;28;20572;-80
2022/02/12 09:58:33;;;;;;;9.70;3.08;;;;;;;13.89;47.71;99311.63;4954105;28;20065;-78
2022/02/12 10:01:00;;;;;;;8.32;2.70;;;;;;;13.82;48.76;99308.47;4951783;28;20055;-78
2022/02/12 10:03:38;;;;;;;8.02;3.00;;;;;;;13.97;46.10;99304.69;4953343;28;20492;-79
2022/02/12 10:06:05;;;;;;;7.72;2.58;;;;;;;14.76;44.75;99315.34;4944889;28;20473;-82
2022/02/12 10:08:33;;;;;;;6.70;2.38;;;;;;;13.18;48.15;99303.63;4933873;29;20048;-79
2022/02/12 10:11:11;;;;;;;8.02;2.67;;;;;;;13.05;47.85;99312.47;4954119;29;20120;-81
2022/02/12 10:13:37;;;;;;;;;;;;;;;12.98;48.18;99309.28;4959130;28;20121;-80
2022/02/12 10:16:04;;;;;;;6.93;2.42;;;;;;;16.17;42.18;99309.63;4956288;29;19981;-80
2022/02/12 10:18:39;;;;;;;9.73;2.30;;;;;;;13.19;44.87;99294.34;4956006;28;20385;-79
2022/02/12 10:21:07;;;;;;;6.97;1.80;;;;;;;14.75;42.72;99294.66;4955805;28;20193;-82
2022/02/12 10:23:38;;;;;;;5.90;2.10;;;;;;;15.38;42.93;99292.00;4965980;28;20047;-82
2022/02/12 10:26:05;;;;;;;7.05;2.20;;;;;;;-141.50;100.00;63355.56;4959952;28;20529;-81
2022/02/12 10:28:40;;;;;;;9.30;2.33;;;;;;;-141.50;100.00;63355.56;4956787;29;20063;-80
2022/02/12 10:31:07;;;;;;;8.52;2.28;;;;;;;-141.50;100.00;63355.56;4958203;28;20047;-80
2022/02/12 10:33:41;;;;;;;8.95;2.30;;;;;;;-141.50;100.00;63355.56;4957204;28;20061;-81
2022/02/12 10:36:13;;;;;;;7.70;1.90;;;;;;;-141.50;100.00;63355.56;4961386;29;20055;-80
2022/02/12 10:38:48;;;;;;;7.60;2.35;;;;;;;18.76;36.86;99252.34;4957693;28;20090;-82
2022/02/12 10:41:16;;;;;;;8.45;2.45;;;;;;;16.88;40.47;99266.78;4942712;29;20079;-80
2022/02/12 10:43:45;;;;;;;8.50;2.35;;;;;;;17.83;37.59;99243.16;4941287;29;20107;-82
2022/02/12 10:46:12;;;;;;;9.35;2.58;;;;;;;17.75;36.40;99252.19;4965864;29;20112;-81
2022/02/12 10:48:40;;;;;;;7.35;2.15;;;;;;;16.06;40.27;99242.69;4961296;28;20546;-79
2022/02/12 10:51:22;;;;;;;5.93;1.88;;;;;;;17.09;37.72;99237.72;4953059;29;20067;-79
2022/02/12 10:54:09;;;;;;;7.32;2.20;;;;;;;17.00;38.51;99241.56;4950618;29;20071;-78
2022/02/12 10:56:49;;;;;;;8.00;1.75;;;;;;;17.75;38.46;99231.09;4952350;29;20054;-79
2022/02/12 10:59:20;;;;;;;8.10;1.92;;;;;;;17.79;39.13;99229.28;4952441;28;20113;-78
2022/02/12 11:01:49;;;;;;;5.75;1.80;;;;;;;17.57;40.45;99226.72;4954622;28;20090;-78
2022/02/12 11:04:16;;;;;;;7.78;2.03;;;;;;;16.19;40.17;99217.22;4953010;28;20536;-81
2022/02/12 11:06:47;;;;;;;6.53;1.67;;;;;;;17.01;36.89;99210.34;4951716;28;20499;-79
2022/02/12 11:09:15;;;;;;;4.45;1.55;;;;;;;17.14;39.72;99195.69;4950951;28;20087;-79
2022/02/12 11:11:42;;;;;;;6.10;1.70;;;;;;;16.42;40.54;99190.63;4954618;29;20055;-79
2022/02/12 11:14:09;;;;;;;5.10;1.75;;;;;;;16.45;38.79;99189.19;4952911;28;20091;-81
2022/02/12 11:16:36;;;;;;;4.93;1.95;;;;;;;17.80;37.27;99189.00;4954384;28;20149;-80
2022/02/12 11:19:04;;;;;;;5.95;1.88;;;;;;;17.95;36.37;99181.09;4957754;28;20059;-81
2022/02/12 11:21:33;;;;;;;6.03;2.10;;;;;;;15.73;40.06;99183.16;4954637;28;20058;-80
2022/02/12 11:24:12;;;;;;;7.10;2.17;;;;;;;16.97;40.97;99176.53;4954927;28;20472;-80
2022/02/12 11:26:42;;;;;;;6.50;1.80;;;;;;;19.24;36.01;99164.88;4953542;28;20055;-79
2022/02/12 11:29:33;;;;;;;6.55;1.92;;;;;;;19.29;34.61;99164.66;4951389;28;20055;-78
2022/02/12 11:32:14;;;;;;;6.45;1.80;;;;;;;18.72;35.16;99152.59;4941540;29;20070;-81
2022/02/12 11:34:50;;;;;;;5.10;1.67;;;;;;;19.25;35.31;99151.94;4960550;28;20052;-80
2022/02/12 11:37:18;;;;;;;5.32;2.42;;;;;;;17.65;35.61;99156.63;4968648;28;20312;-78
2022/02/12 11:40:22;;;;;;;5.32;2.40;;;;;;;16.29;36.76;99158.72;4952028;28;20149;-78